Time;durP1;ratioP1;P1;durP2;ratioP2;P2;SDS_P1;SDS_P2;PMS_P1;PMS_P2;Temp;Humidity;BMP_temperature;BMP_pressure;BME280_temperature;BME280_humidity;BME280_pressure;Samples;Min_cycle;Max_cycle;Signal;HPM_P1;HPM_P2
2023/12/28 00:00:37;;;;;;;1.20;0.90;;;;;;;;;;4980385;28;20042;-83
2023/12/28 00:03:03;;;;;;;0.77;0.77;;;;;;;;;;4974615;28;20042;-84
2023/12/28 00:05:28;;;;;;;0.80;0.80;;;;;;;;;;4969051;28;20074;-83
2023/12/28 00:07:57;;;;;;;0.82;0.82;;;;;;;;;;4986926;28;20566;-83
2023/12/28 00:10:27;;;;;;;1.05;0.90;;;;;;;;;;4959777;28;20130;-81
2023/12/28 00:12:53;;;;;;;1.27;0.88;;;;;;;;;;4985202;28;20054;-83
2023/12/28 00:15:18;;;;;;;1.10;1.00;;;;;;;;;;4967610;28;20042;-83
2023/12/28 00:17:43;;;;;;;0.70;0.70;;;;;;;;;;4991753;28;20498;-83
2023/12/28 00:20:09;;;;;;;1.00;0.90;;;;;;;;;;4975112;28;20049;-83
2023/12/28 00:22:37;;;;;;;0.93;0.90;;;;;;;;;;4982621;28;20147;-83
2023/12/28 00:25:03;;;;;;;1.30;0.93;;;;;;;;;;4984446;28;20176;-82
2023/12/28 00:27:28;;;;;;;0.80;0.80;;;;;;;;;;4984016;28;20039;-83
2023/12/28 00:29:54;;;;;;;0.82;0.82;;;;;;;;;;4992477;28;20376;-83
2023/12/28 00:32:19;;;;;;;0.85;0.80;;;;;;;;;;4985466;28;20043;-83
2023/12/28 00:34:44;;;;;;;1.25;1.00;;;;;;;;;;4990397;28;20089;-82
2023/12/28 00:37:10;;;;;;;1.08;0.98;;;;;;;;;;4994277;28;20094;-83
2023/12/28 00:39:35;;;;;;;1.13;0.98;;;;;;;;;;4980665;28;20031;-81
2023/12/28 00:42:00;;;;;;;2.47;0.82;;;;;;;;;;4982385;28;20501;-82
2023/12/28 00:44:26;;;;;;;0.90;0.90;;;;;;;;;;4990910;28;20073;-83
2023/12/28 00:46:51;;;;;;;0.85;0.77;;;;;;;;;;4982260;28;20503;-83
2023/12/28 00:49:16;;;;;;;1.98;0.95;;;;;;;;;;4993227;28;20043;-82
2023/12/28 00:51:41;;;;;;;1.00;0.80;;;;;;;;;;4964295;28;20031;-84
2023/12/28 00:54:07;;;;;;;0.90;0.90;;;;;;;;;;4987981;28;20022;-84
2023/12/28 00:56:32;;;;;;;0.98;0.98;;;;;;;;;;4991463;28;20038;-84
2023/12/28 00:58:57;;;;;;;1.00;0.90;;;;;;;;;;4971642;28;20039;-83
2023/12/28 01:01:23;;;;;;;0.93;0.93;;;;;;;;;;4981385;28;20038;-82
2023/12/28 01:03:48;;;;;;;1.13;1.00;;;;;;;;;;4991256;28;20049;-83
2023/12/28 01:06:13;;;;;;;1.10;1.10;;;;;;;;;;4985736;28;20474;-82
2023/12/28 01:08:39;;;;;;;0.98;0.98;;;;;;;;;;4983670;28;20530;-83
2023/12/28 01:11:04;;;;;;;0.90;0.90;;;;;;;;;;4984360;28;20038;-83
2023/12/28 01:13:30;;;;;;;0.73;0.73;;;;;;;;;;4983536;28;20062;-82
2023/12/28 01:15:56;;;;;;;0.80;0.80;;;;;;;;;;4987455;28;20031;-83
2023/12/28 01:18:21;;;;;;;1.70;1.10;;;;;;;;;;4993079;28;20102;-82
2023/12/28 01:20:47;;;;;;;2.42;0.80;;;;;;;;;;5003505;28;20499;-82
2023/12/28 01:23:12;;;;;;;1.45;1.00;;;;;;;;;;4984375;28;20054;-82
2023/12/28 01:25:37;;;;;;;0.80;0.80;;;;;;;;;;4999631;28;20515;-84
2023/12/28 01:28:03;;;;;;;1.65;0.88;;;;;;;;;;5000918;28;20026;-83
2023/12/28 01:30:28;;;;;;;1.00;0.90;;;;;;;;;;4983550;28;20129;-83
2023/12/28 01:32:54;;;;;;;1.42;0.90;;;;;;;;;;4990150;28;20073;-83
2023/12/28 01:35:19;;;;;;;1.08;0.93;;;;;;;;;;4987251;28;20084;-82
2023/12/28 01:37:45;;;;;;;0.82;0.80;;;;;;;;;;4984933;28;20093;-83
2023/12/28 01:40:10;;;;;;;0.90;0.90;;;;;;;;;;4993653;28;20041;-82
2023/12/28 01:42:36;;;;;;;0.90;0.90;;;;;;;;;;4984102;28;20400;-83
2023/12/28 01:45:01;;;;;;;1.00;0.85;;;;;;;;;;4979304;28;20043;-83
2023/12/28 01:47:28;;;;;;;0.85;0.82;;;;;;;;;;4996480;28;20125;-84
2023/12/28 01:49:54;;;;;;;1.02;0.88;;;;;;;;;;4996864;28;20094;-83
2023/12/28 01:52:20;;;;;;;0.80;0.80;;;;;;;;;;4987157;28;20070;-83
2023/12/28 01:54:45;;;;;;;0.73;0.70;;;;;;;;;;4999467;28;20042;-81
2023/12/28 01:57:11;;;;;;;0.75;0.75;;;;;;;;;;4972642;28;20377;-84
2023/12/28 01:59:37;;;;;;;0.80;0.80;;;;;;;;;;4980938;28;20491;-83
2023/12/28 02:02:02;;;;;;;0.85;0.85;;;;;;;;;;4999314;28;20084;-82
2023/12/28 02:04:28;;;;;;;0.70;0.70;;;;;;;;;;4983244;28;20038;-84
2023/12/28 02:07:00;;;;;;;0.82;0.82;;;;;;;;;;4980863;28;20486;-83
2023/12/28 02:09:25;;;;;;;0.82;0.82;;;;;;;;;;4977278;28;20413;-83
2023/12/28 02:11:52;;;;;;;0.73;0.73;;;;;;;;;;4965748;28;20091;-82
2023/12/28 02:14:18;;;;;;;0.73;0.73;;;;;;;;;;4992359;28;20035;-85
2023/12/28 02:16:49;;;;;;;1.33;0.80;;;;;;;;;;4996334;28;20034;-82
2023/12/28 02:19:36;;;;;;;0.88;0.88;;;;;;;;;;4967548;28;20444;-82
2023/12/28 02:22:02;;;;;;;1.48;0.90;;;;;;;;;;4980835;28;20061;-82
2023/12/28 02:24:27;;;;;;;0.77;0.77;;;;;;;;;;4970029;28;20047;-83
2023/12/28 02:26:53;;;;;;;2.92;0.90;;;;;;;;;;4981937;28;20037;-84
2023/12/28 02:29:18;;;;;;;0.77;0.77;;;;;;;;;;4998661;28;20046;-83
2023/12/28 02:31:51;;;;;;;0.90;0.80;;;;;;;;;;4998007;28;20040;-84
2023/12/28 02:34:29;;;;;;;1.20;0.93;;;;;;;;;;4990203;28;20125;-86
2023/12/28 02:36:56;;;;;;;0.57;0.57;;;;;;;;;;4992811;28;20027;-82
2023/12/28 02:39:22;;;;;;;1.13;0.90;;;;;;;;;;4984521;28;20098;-83
2023/12/28 02:41:48;;;;;;;0.70;0.70;;;;;;;;;;4996833;28;20026;-82
2023/12/28 02:44:13;;;;;;;1.10;1.10;;;;;;;;;;4983909;28;20026;-82
2023/12/28 02:46:38;;;;;;;1.20;0.85;;;;;;;;;;4997006;28;20046;-82
2023/12/28 02:49:03;;;;;;;0.88;0.88;;;;;;;;;;4981726;28;20087;-80
2023/12/28 02:51:29;;;;;;;0.68;0.68;;;;;;;;;;4990670;28;20030;-84
2023/12/28 02:53:54;;;;;;;0.95;0.63;;;;;;;;;;4980575;28;20050;-83
2023/12/28 02:56:19;;;;;;;1.00;0.90;;;;;;;;;;4990992;28;20527;-83
2023/12/28 02:58:45;;;;;;;0.63;0.63;;;;;;;;;;4994463;28;20042;-83
2023/12/28 03:01:10;;;;;;;0.82;0.82;;;;;;;;;;4985000;28;20456;-84
2023/12/28 03:03:35;;;;;;;0.55;0.55;;;;;;;;;;4969483;28;20122;-82
2023/12/28 03:06:00;;;;;;;0.73;0.73;;;;;;;;;;4968826;28;20042;-83
2023/12/28 03:08:26;;;;;;;0.70;0.70;;;;;;;;;;4974697;28;20034;-84
2023/12/28 03:10:52;;;;;;;0.75;0.75;;;;;;;;;;4978259;28;20565;-84
2023/12/28 03:13:18;;;;;;;0.80;0.80;;;;;;;;;;4991003;28;20050;-83
2023/12/28 03:15:43;;;;;;;0.75;0.75;;;;;;;;;;4979965;28;20041;-83
2023/12/28 03:18:08;;;;;;;0.80;0.75;;;;;;;;;;4976339;28;20086;-83
2023/12/28 03:20:33;;;;;;;0.63;0.63;;;;;;;;;;4985803;28;20026;-82
2023/12/28 03:22:59;;;;;;;1.02;0.90;;;;;;;;;;4997480;28;20038;-83
2023/12/28 03:25:24;;;;;;;0.70;0.70;;;;;;;;;;4998170;28;20042;-81
2023/12/28 03:27:49;;;;;;;1.10;1.00;;;;;;;;;;4963712;28;20383;-84
2023/12/28 03:30:15;;;;;;;1.27;1.00;;;;;;;;;;4984647;28;20042;-83
2023/12/28 03:32:40;;;;;;;0.63;0.63;;;;;;;;;;4965661;28;20035;-83
2023/12/28 03:35:07;;;;;;;0.63;0.63;;;;;;;;;;4993321;28;20042;-81
2023/12/28 03:37:32;;;;;;;0.57;0.57;;;;;;;;;;4978057;28;20042;-82
2023/12/28 03:39:58;;;;;;;0.82;0.82;;;;;;;;;;4979520;28;20039;-84
2023/12/28 03:42:23;;;;;;;0.70;0.70;;;;;;;;;;4997902;28;20045;-82
2023/12/28 03:44:48;;;;;;;0.73;0.73;;;;;;;;;;4993142;28;20035;-83
2023/12/28 03:47:14;;;;;;;0.60;0.60;;;;;;;;;;4993479;28;20060;-82
2023/12/28 03:49:39;;;;;;;0.60;0.60;;;;;;;;;;5001865;28;20053;-82
2023/12/28 03:52:05;;;;;;;0.55;0.55;;;;;;;;;;4978926;28;20073;-84
2023/12/28 03:54:30;;;;;;;0.55;0.55;;;;;;;;;;4964207;28;20031;-84
2023/12/28 03:56:55;;;;;;;0.60;0.60;;;;;;;;;;4982933;28;20035;-83
2023/12/28 03:59:20;;;;;;;0.63;0.63;;;;;;;;;;4990096;28;20402;-82
2023/12/28 04:01:46;;;;;;;0.80;0.80;;;;;;;;;;5000285;28;20038;-84
2023/12/28 04:04:11;;;;;;;2.40;0.77;;;;;;;;;;5001139;28;20554;-83
2023/12/28 04:06:38;;;;;;;1.67;0.70;;;;;;;;;;4983436;28;20043;-83
2023/12/28 04:09:03;;;;;;;0.70;0.70;;;;;;;;;;4981475;28;20410;-82
2023/12/28 04:11:28;;;;;;;1.33;1.05;;;;;;;;;;4983635;28;20034;-84
2023/12/28 04:13:54;;;;;;;0.65;0.65;;;;;;;;;;4984416;28;20100;-81
2023/12/28 04:16:20;;;;;;;0.80;0.80;;;;;;;;;;4976707;28;20046;-80
2023/12/28 04:18:45;;;;;;;0.65;0.65;;;;;;;;;;4992227;28;20045;-82
2023/12/28 04:21:12;;;;;;;0.60;0.60;;;;;;;;;;4974660;28;20031;-82
2023/12/28 04:23:39;;;;;;;1.15;0.80;;;;;;;;;;4969558;28;20038;-81
2023/12/28 04:26:05;;;;;;;0.80;0.80;;;;;;;;;;4996735;28;20125;-80
2023/12/28 04:28:30;;;;;;;1.38;0.73;;;;;;;;;;4978607;28;20073;-80
2023/12/28 04:30:56;;;;;;;0.40;0.40;;;;;;;;;;4993113;28;20261;-81
2023/12/28 04:33:21;;;;;;;0.90;0.90;;;;;;;;;;4971614;28;20041;-80
2023/12/28 04:35:47;;;;;;;0.68;0.68;;;;;;;;;;4994979;28;20030;-80
2023/12/28 04:38:12;;;;;;;0.80;0.80;;;;;;;;;;4988226;28;20039;-81
2023/12/28 04:40:38;;;;;;;0.75;0.75;;;;;;;;;;4998496;28;20396;-81
2023/12/28 04:43:03;;;;;;;0.75;0.75;;;;;;;;;;4999521;28;20038;-80
2023/12/28 04:45:28;;;;;;;0.90;0.90;;;;;;;;;;4976433;28;20579;-81
2023/12/28 04:47:54;;;;;;;0.73;0.73;;;;;;;;;;4982310;28;20031;-81
2023/12/28 04:50:19;;;;;;;1.63;0.80;;;;;;;;;;4997753;28;20043;-81
2023/12/28 04:52:44;;;;;;;2.42;0.80;;;;;;;;;;4991364;28;20125;-81
2023/12/28 04:55:10;;;;;;;0.85;0.80;;;;;;;;;;4996079;28;20045;-80
2023/12/28 04:57:35;;;;;;;1.00;0.90;;;;;;;;;;4993041;28;20114;-81
2023/12/28 05:00:00;;;;;;;0.70;0.70;;;;;;;;;;4996234;28;20032;-81
2023/12/28 05:02:25;;;;;;;0.98;0.98;;;;;;;;;;4989726;28;20038;-80
2023/12/28 05:04:51;;;;;;;0.85;0.85;;;;;;;;;;4991454;28;20030;-80
2023/12/28 05:07:16;;;;;;;0.93;0.93;;;;;;;;;;4961293;28;20057;-79
2023/12/28 05:09:41;;;;;;;0.85;0.85;;;;;;;;;;4989600;28;20428;-79
2023/12/28 05:12:07;;;;;;;0.60;0.60;;;;;;;;;;4994115;28;20043;-80
2023/12/28 05:14:33;;;;;;;0.70;0.70;;;;;;;;;;4982491;28;20041;-81
2023/12/28 05:16:58;;;;;;;1.20;0.88;;;;;;;;;;4995052;28;20039;-81
2023/12/28 05:19:23;;;;;;;0.80;0.80;;;;;;;;;;4978799;28;20347;-81
2023/12/28 05:21:48;;;;;;;0.90;0.90;;;;;;;;;;4979542;28;20034;-81
2023/12/28 05:24:14;;;;;;;0.63;0.60;;;;;;;;;;4985741;28;20353;-80
2023/12/28 05:26:39;;;;;;;0.80;0.70;;;;;;;;;;4975473;28;20057;-81
2023/12/28 05:29:05;;;;;;;0.98;0.98;;;;;;;;;;4987050;28;20041;-82
2023/12/28 05:31:30;;;;;;;0.75;0.75;;;;;;;;;;4994606;28;20108;-82
2023/12/28 05:33:56;;;;;;;0.70;0.70;;;;;;;;;;4993188;28;20049;-82
2023/12/28 05:36:22;;;;;;;0.95;0.90;;;;;;;;;;4993509;28;20099;-81
2023/12/28 05:38:47;;;;;;;2.05;0.80;;;;;;;;;;4976483;28;20043;-81
2023/12/28 05:41:13;;;;;;;0.70;0.70;;;;;;;;;;4994429;28;20544;-81
2023/12/28 05:43:38;;;;;;;1.23;0.75;;;;;;;;;;4973800;28;20101;-81
2023/12/28 05:46:04;;;;;;;1.08;0.98;;;;;;;;;;4967805;28;20038;-80
2023/12/28 05:48:30;;;;;;;0.68;0.68;;;;;;;;;;4988746;28;20126;-81
2023/12/28 05:50:57;;;;;;;1.10;1.00;;;;;;;;;;4986778;28;20072;-81
2023/12/28 05:53:23;;;;;;;0.98;0.98;;;;;;;;;;4996493;28;20125;-81
2023/12/28 05:55:48;;;;;;;1.23;0.80;;;;;;;;;;4980049;28;20046;-81
2023/12/28 05:58:13;;;;;;;0.80;0.80;;;;;;;;;;4990434;28;20034;-81
2023/12/28 06:00:39;;;;;;;0.75;0.75;;;;;;;;;;4992254;28;20081;-80
2023/12/28 06:03:07;;;;;;;0.95;0.88;;;;;;;;;;4996274;28;20090;-82
2023/12/28 06:05:33;;;;;;;0.80;0.80;;;;;;;;;;4988131;28;20027;-82
2023/12/28 06:07:58;;;;;;;0.80;0.80;;;;;;;;;;4991984;28;20566;-82
2023/12/28 06:10:26;;;;;;;0.60;0.60;;;;;;;;;;4996467;28;20388;-81
2023/12/28 06:12:52;;;;;;;1.35;0.60;;;;;;;;;;4998706;28;20050;-82
2023/12/28 06:15:17;;;;;;;1.20;0.82;;;;;;;;;;4992864;28;20038;-81
2023/12/28 06:17:42;;;;;;;0.82;0.70;;;;;;;;;;4990934;28;20518;-81
2023/12/28 06:20:09;;;;;;;0.73;0.73;;;;;;;;;;4995581;28;20035;-82
2023/12/28 06:22:36;;;;;;;1.30;1.02;;;;;;;;;;4985776;28;20039;-81
2023/12/28 06:25:03;;;;;;;0.80;0.80;;;;;;;;;;4995087;28;20530;-81
2023/12/28 06:27:28;;;;;;;0.70;0.70;;;;;;;;;;4976128;28;20096;-81
2023/12/28 06:29:54;;;;;;;1.23;0.90;;;;;;;;;;4994428;28;20046;-81
2023/12/28 06:32:19;;;;;;;0.70;0.70;;;;;;;;;;4994759;28;20054;-81
2023/12/28 06:34:44;;;;;;;0.70;0.70;;;;;;;;;;4990964;28;20045;-80
2023/12/28 06:37:10;;;;;;;0.70;0.70;;;;;;;;;;4993317;28;20589;-80
2023/12/28 06:39:35;;;;;;;0.80;0.80;;;;;;;;;;4957051;28;20051;-82
2023/12/28 06:42:00;;;;;;;0.70;0.70;;;;;;;;;;4994054;28;20058;-81
2023/12/28 06:44:26;;;;;;;0.80;0.80;;;;;;;;;;4992766;28;20135;-80
2023/12/28 06:46:51;;;;;;;0.70;0.70;;;;;;;;;;4978598;28;20030;-81
2023/12/28 06:49:16;;;;;;;0.73;0.73;;;;;;;;;;4993659;28;20125;-80
2023/12/28 06:51:43;;;;;;;0.93;0.93;;;;;;;;;;4975404;28;20065;-80
2023/12/28 06:54:09;;;;;;;1.58;0.93;;;;;;;;;;4993165;28;20054;-82
2023/12/28 06:56:34;;;;;;;0.60;0.60;;;;;;;;;;4962711;28;20038;-79
2023/12/28 06:58:59;;;;;;;1.00;0.90;;;;;;;;;;4973234;28;20331;-80
2023/12/28 07:01:25;;;;;;;0.85;0.80;;;;;;;;;;4994658;28;20038;-81
2023/12/28 07:03:50;;;;;;;0.75;0.75;;;;;;;;;;4999024;28;20039;-81
2023/12/28 07:06:15;;;;;;;0.95;0.80;;;;;;;;;;4968704;28;20042;-81
2023/12/28 07:08:41;;;;;;;0.70;0.70;;;;;;;;;;4973494;28;20045;-82
2023/12/28 07:11:09;;;;;;;0.80;0.80;;;;;;;;;;4981716;28;20031;-82
2023/12/28 07:13:34;;;;;;;1.02;0.80;;;;;;;;;;4987620;28;20042;-81
2023/12/28 07:16:00;;;;;;;0.80;0.80;;;;;;;;;;4987209;28;20054;-81
2023/12/28 07:18:25;;;;;;;0.70;0.70;;;;;;;;;;4986187;28;20506;-80
2023/12/28 07:20:50;;;;;;;0.80;0.80;;;;;;;;;;4979297;28;20066;-80
2023/12/28 07:23:16;;;;;;;0.80;0.80;;;;;;;;;;4978977;28;20097;-81
2023/12/28 07:25:41;;;;;;;0.90;0.90;;;;;;;;;;4979317;28;20408;-82
2023/12/28 07:28:06;;;;;;;0.80;0.80;;;;;;;;;;4973445;28;20397;-82
2023/12/28 07:30:32;;;;;;;0.90;0.90;;;;;;;;;;4971928;28;20070;-81
2023/12/28 07:32:57;;;;;;;0.90;0.90;;;;;;;;;;4960905;28;20034;-81
2023/12/28 07:35:22;;;;;;;1.48;0.90;;;;;;;;;;4975797;28;20042;-82
2023/12/28 07:37:48;;;;;;;0.82;0.82;;;;;;;;;;4985870;28;20099;-82
2023/12/28 07:40:13;;;;;;;1.73;0.77;;;;;;;;;;4986237;28;20121;-80
2023/12/28 07:42:39;;;;;;;0.60;0.60;;;;;;;;;;4986577;28;20035;-82
2023/12/28 07:45:04;;;;;;;0.75;0.75;;;;;;;;;;4983222;28;20113;-82
2023/12/28 07:47:30;;;;;;;0.60;0.60;;;;;;;;;;4971964;28;20137;-81
2023/12/28 07:49:55;;;;;;;0.73;0.73;;;;;;;;;;4976770;28;20046;-81
2023/12/28 07:52:20;;;;;;;0.80;0.80;;;;;;;;;;4978490;28;20049;-82
2023/12/28 07:54:46;;;;;;;2.03;0.90;;;;;;;;;;4984104;28;20101;-82
2023/12/28 07:57:11;;;;;;;0.88;0.88;;;;;;;;;;4986507;28;20395;-82
2023/12/28 07:59:37;;;;;;;1.75;0.70;;;;;;;;;;4979753;28;20031;-81
2023/12/28 08:02:02;;;;;;;0.70;0.70;;;;;;;;;;4977003;28;20041;-81
2023/12/28 08:04:27;;;;;;;1.55;0.85;;;;;;;;;;4979060;28;20035;-80
2023/12/28 08:06:52;;;;;;;1.70;0.90;;;;;;;;;;4981074;28;20038;-81
2023/12/28 08:09:18;;;;;;;1.77;0.80;;;;;;;;;;4988888;28;20066;-80
2023/12/28 08:11:43;;;;;;;0.70;0.70;;;;;;;;;;4987908;28;20042;-81
2023/12/28 08:14:08;;;;;;;0.80;0.70;;;;;;;;;;4983231;28;20035;-81
2023/12/28 08:16:35;;;;;;;0.90;0.90;;;;;;;;;;4986973;28;20027;-80
2023/12/28 08:19:00;;;;;;;0.88;0.77;;;;;;;;;;4997143;28;20536;-83
2023/12/28 08:21:25;;;;;;;2.15;1.13;;;;;;;;;;4982096;28;20063;-81
2023/12/28 08:23:51;;;;;;;1.38;1.00;;;;;;;;;;4980244;28;20038;-82
2023/12/28 08:26:16;;;;;;;0.70;0.70;;;;;;;;;;4960818;28;20608;-81
2023/12/28 08:28:42;;;;;;;0.80;0.80;;;;;;;;;;4963498;28;20519;-81
2023/12/28 08:31:08;;;;;;;1.02;1.02;;;;;;;;;;4956721;28;20031;-82
2023/12/28 08:33:35;;;;;;;1.05;1.05;;;;;;;;;;4991049;28;20047;-82
2023/12/28 08:36:02;;;;;;;3.28;1.20;;;;;;;;;;4967080;28;20031;-82
2023/12/28 08:38:27;;;;;;;1.02;0.93;;;;;;;;;;4991674;28;20034;-81
2023/12/28 08:40:53;;;;;;;2.03;1.20;;;;;;;;;;4978124;28;20043;-80
2023/12/28 08:43:18;;;;;;;2.67;1.42;;;;;;;;;;4975014;28;20047;-81
2023/12/28 08:45:43;;;;;;;2.47;1.60;;;;;;;;;;4962527;28;20039;-81
2023/12/28 08:48:08;;;;;;;2.90;1.70;;;;;;;;;;4975865;28;20047;-81
2023/12/28 08:50:34;;;;;;;3.33;2.30;;;;;;;;;;4983656;28;20039;-81
2023/12/28 08:52:59;;;;;;;3.67;2.50;;;;;;;;;;4986536;28;20042;-81
2023/12/28 08:55:24;;;;;;;2.83;1.98;;;;;;;;;;4976001;28;20039;-80
2023/12/28 08:57:49;;;;;;;5.10;2.25;;;;;;;;;;4979352;28;20046;-81
2023/12/28 09:00:16;;;;;;;3.92;1.85;;;;;;;;;;4978019;28;20035;-80
2023/12/28 09:02:42;;;;;;;4.65;1.88;;;;;;;;;;4978026;28;20118;-81
2023/12/28 09:05:09;;;;;;;2.90;2.00;;;;;;;;;;4975933;28;20550;-81
2023/12/28 09:07:36;;;;;;;1.50;1.40;;;;;;;;;;4982224;28;20495;-80
2023/12/28 09:10:02;;;;;;;1.65;1.10;;;;;;;;;;4988385;28;20070;-81
2023/12/28 09:12:27;;;;;;;1.33;1.13;;;;;;;;;;4980545;28;20050;-80
2023/12/28 09:14:52;;;;;;;1.50;1.23;;;;;;;;;;4980033;28;20031;-81
2023/12/28 09:17:21;;;;;;;2.38;1.27;;;;;;;;;;4979413;28;20038;-81
2023/12/28 09:19:46;;;;;;;2.65;1.00;;;;;;;;;;4980716;28;20094;-81
2023/12/28 09:22:11;;;;;;;1.10;1.00;;;;;;;;;;4962189;28;20035;-81
2023/12/28 09:24:37;;;;;;;1.77;0.95;;;;;;;;;;4961082;28;20397;-81
2023/12/28 09:27:02;;;;;;;1.08;0.98;;;;;;;;;;4978453;28;20460;-81
2023/12/28 09:29:27;;;;;;;0.95;0.95;;;;;;;;;;4979122;28;20046;-80
2023/12/28 09:31:53;;;;;;;2.33;1.55;;;;;;;;;;4982022;28;20038;-83
2023/12/28 09:34:19;;;;;;;1.38;1.00;;;;;;;;;;4975903;28;20702;-82
2023/12/28 09:36:44;;;;;;;1.67;1.00;;;;;;;;;;4978692;28;20051;-80
2023/12/28 09:39:09;;;;;;;1.00;0.90;;;;;;;;;;4962891;28;20035;-82
2023/12/28 09:41:39;;;;;;;1.00;1.00;;;;;;;;;;4944984;28;20047;-81
2023/12/28 09:44:08;;;;;;;0.80;0.80;;;;;;;;;;4976229;28;20070;-81
2023/12/28 09:46:35;;;;;;;2.90;0.90;;;;;;;;;;4979783;28;20466;-80
2023/12/28 09:49:01;;;;;;;1.05;0.93;;;;;;;;;;4974804;28;20038;-81
2023/12/28 09:51:26;;;;;;;0.77;0.77;;;;;;;;;;4961459;28;20035;-80
2023/12/28 09:53:52;;;;;;;1.10;1.00;;;;;;;;;;4977652;28;20179;-80
2023/12/28 09:56:18;;;;;;;1.45;0.82;;;;;;;;;;4977476;28;20039;-81
2023/12/28 09:58:44;;;;;;;1.25;1.00;;;;;;;;;;4960564;28;20038;-81
2023/12/28 10:01:10;;;;;;;0.80;0.80;;;;;;;;;;4959669;28;20046;-82
2023/12/28 10:03:36;;;;;;;0.90;0.85;;;;;;;;;;4984276;28;20465;-81
2023/12/28 10:06:01;;;;;;;1.58;1.10;;;;;;;;;;4975725;28;20039;-82
2023/12/28 10:08:26;;;;;;;1.02;0.93;;;;;;;;;;4977127;28;20443;-81
2023/12/28 10:10:54;;;;;;;1.35;1.13;;;;;;;;;;4964668;28;20072;-81
2023/12/28 10:13:21;;;;;;;4.05;1.10;;;;;;;;;;4961007;28;20035;-82
2023/12/28 10:15:47;;;;;;;1.08;1.00;;;;;;;;;;4975861;28;20050;-81
2023/12/28 10:18:12;;;;;;;0.82;0.80;;;;;;;;;;4977997;28;20035;-84
2023/12/28 10:20:38;;;;;;;1.02;1.00;;;;;;;;;;4976282;28;20034;-83
2023/12/28 10:23:03;;;;;;;1.35;1.10;;;;;;;;;;4974223;28;20529;-83
2023/12/28 10:25:32;;;;;;;1.17;1.10;;;;;;;;;;4976517;28;20038;-82
2023/12/28 10:28:04;;;;;;;0.90;0.90;;;;;;;;;;4974469;28;20046;-84
2023/12/28 10:30:31;;;;;;;2.42;1.35;;;;;;;;;;4979193;28;20031;-83
2023/12/28 10:32:56;;;;;;;1.08;1.00;;;;;;;;;;4974111;28;20034;-83
2023/12/28 10:35:21;;;;;;;3.65;1.25;;;;;;;;;;4975231;28;20045;-82
2023/12/28 10:37:53;;;;;;;1.45;1.20;;;;;;;;;;4976330;28;20038;-82
2023/12/28 10:40:20;;;;;;;2.78;1.23;;;;;;;;;;4973395;28;20034;-84
2023/12/28 10:42:52;;;;;;;1.30;1.20;;;;;;;;;;4979394;28;20042;-82
2023/12/28 10:45:23;;;;;;;3.70;1.10;;;;;;;;;;4978818;28;20038;-82
2023/12/28 10:47:56;;;;;;;1.60;1.20;;;;;;;;;;4984644;28;20042;-82
2023/12/28 10:50:26;;;;;;;3.05;1.48;;;;;;;;;;4958363;28;20097;-84
2023/12/28 10:52:56;;;;;;;1.67;1.30;;;;;;;;;;4968920;28;20431;-85
2023/12/28 10:55:27;;;;;;;4.25;2.45;;;;;;;;;;4985564;28;20031;-81
2023/12/28 10:57:58;;;;;;;1.40;1.23;;;;;;;;;;4993017;28;20031;-80
2023/12/28 11:00:26;;;;;;;1.70;1.27;;;;;;;;;;4959675;28;20046;-83
2023/12/28 11:02:59;;;;;;;1.25;1.00;;;;;;;;;;4954536;28;20030;-83
2023/12/28 11:05:26;;;;;;;1.20;1.10;;;;;;;;;;4981940;28;20129;-83
2023/12/28 11:07:54;;;;;;;5.85;1.08;;;;;;;;;;4974150;28;20047;-82
2023/12/28 11:10:23;;;;;;;1.10;1.00;;;;;;;;;;4985911;28;20069;-83
2023/12/28 11:12:50;;;;;;;1.42;1.00;;;;;;;;;;4992493;28;20097;-83
2023/12/28 11:15:15;;;;;;;0.90;0.80;;;;;;;;;;4983468;28;20089;-84
2023/12/28 11:17:41;;;;;;;1.00;0.93;;;;;;;;;;4981159;28;20039;-83
2023/12/28 11:20:07;;;;;;;2.40;1.65;;;;;;;;;;4985124;28;20523;-82
2023/12/28 11:22:34;;;;;;;1.00;1.00;;;;;;;;;;4976517;28;20357;-82
2023/12/28 11:24:59;;;;;;;1.10;0.90;;;;;;;;;;4980848;28;20034;-83
2023/12/28 11:27:25;;;;;;;0.95;0.90;;;;;;;;;;4979775;28;20041;-83
2023/12/28 11:29:52;;;;;;;0.98;0.95;;;;;;;;;;4997515;28;20109;-83
2023/12/28 11:32:19;;;;;;;1.20;1.13;;;;;;;;;;4997228;28;20039;-83
2023/12/28 11:34:45;;;;;;;1.20;1.10;;;;;;;;;;4971180;28;20531;-84
2023/12/28 11:37:18;;;;;;;0.80;0.80;;;;;;;;;;4990102;28;20038;-83
2023/12/28 11:39:44;;;;;;;0.98;0.80;;;;;;;;;;4976846;28;20057;-84
2023/12/28 11:42:10;;;;;;;0.77;0.77;;;;;;;;;;4978107;28;20090;-84
2023/12/28 11:44:40;;;;;;;2.83;1.15;;;;;;;;;;4988001;28;20038;-83
2023/12/28 11:47:15;;;;;;;2.20;1.30;;;;;;;;;;4982420;28;20126;-83
2023/12/28 11:49:41;;;;;;;1.05;1.05;;;;;;;;;;4975950;28;20566;-83
2023/12/28 11:52:07;;;;;;;1.63;1.30;;;;;;;;;;4960804;28;20043;-83
2023/12/28 11:54:33;;;;;;;1.98;1.25;;;;;;;;;;4976330;28;20082;-83
2023/12/28 11:56:58;;;;;;;2.10;1.20;;;;;;;;;;4984702;28;20495;-83
2023/12/28 11:59:24;;;;;;;1.50;1.08;;;;;;;;;;4973019;28;20039;-83
2023/12/28 12:01:51;;;;;;;0.85;0.85;;;;;;;;;;4979339;28;20150;-83
2023/12/28 12:04:17;;;;;;;1.20;1.10;;;;;;;;;;4990122;28;20081;-84
2023/12/28 12:06:42;;;;;;;1.10;1.10;;;;;;;;;;4980915;28;20093;-83
2023/12/28 12:09:07;;;;;;;4.55;1.00;;;;;;;;;;4983159;28;20121;-84
2023/12/28 12:11:33;;;;;;;1.30;1.17;;;;;;;;;;4978582;28;20039;-84
2023/12/28 12:13:58;;;;;;;0.80;0.70;;;;;;;;;;4988299;28;20063;-83
2023/12/28 12:16:23;;;;;;;1.90;1.10;;;;;;;;;;4984968;28;20042;-83
2023/12/28 12:18:49;;;;;;;1.00;1.00;;;;;;;;;;4988347;28;20558;-82
2023/12/28 12:21:14;;;;;;;4.78;1.20;;;;;;;;;;4955975;28;20101;-83
2023/12/28 12:23:40;;;;;;;1.27;0.90;;;;;;;;;;4972965;28;20051;-83
2023/12/28 12:26:06;;;;;;;1.40;1.20;;;;;;;;;;4974246;28;20031;-83
2023/12/28 12:28:31;;;;;;;1.13;1.00;;;;;;;;;;4996501;28;20069;-82
2023/12/28 12:31:01;;;;;;;1.10;1.00;;;;;;;;;;5006541;28;20022;-81
2023/12/28 12:33:27;;;;;;;1.05;0.95;;;;;;;;;;4990424;28;20057;-83
2023/12/28 12:35:52;;;;;;;1.20;1.10;;;;;;;;;;4998910;28;20058;-83
2023/12/28 12:38:18;;;;;;;1.35;0.98;;;;;;;;;;4968306;28;20034;-83
2023/12/28 12:40:43;;;;;;;1.35;1.13;;;;;;;;;;4998317;28;20069;-84
2023/12/28 12:43:09;;;;;;;1.10;1.00;;;;;;;;;;5004925;28;20018;-81
2023/12/28 12:45:36;;;;;;;1.10;1.10;;;;;;;;;;5003713;28;20046;-83
2023/12/28 12:48:02;;;;;;;1.10;1.00;;;;;;;;;;4966753;28;20093;-82
2023/12/28 12:50:28;;;;;;;1.05;1.00;;;;;;;;;;4987518;28;20050;-83
2023/12/28 12:52:53;;;;;;;1.23;0.90;;;;;;;;;;4977720;28;20118;-83
2023/12/28 12:55:18;;;;;;;1.08;0.98;;;;;;;;;;4985292;28;20050;-83
2023/12/28 12:57:45;;;;;;;1.77;1.20;;;;;;;;;;4972541;28;20035;-83
2023/12/28 13:00:11;;;;;;;1.08;1.00;;;;;;;;;;4990527;28;20038;-84
2023/12/28 13:02:37;;;;;;;1.15;0.98;;;;;;;;;;4996716;28;20039;-84
2023/12/28 13:05:04;;;;;;;1.20;1.10;;;;;;;;;;4985085;28;20046;-83
2023/12/28 13:07:30;;;;;;;1.20;1.10;;;;;;;;;;4962877;28;20129;-81
2023/12/28 13:09:55;;;;;;;1.48;1.25;;;;;;;;;;4988902;28;20507;-83
2023/12/28 13:12:20;;;;;;;1.20;1.10;;;;;;;;;;4972490;28;20053;-83
2023/12/28 13:14:46;;;;;;;1.35;1.08;;;;;;;;;;4983476;28;20411;-82
2023/12/28 13:17:11;;;;;;;1.15;1.00;;;;;;;;;;4986477;28;20042;-83
2023/12/28 13:19:37;;;;;;;1.08;0.98;;;;;;;;;;4980726;28;20035;-82
2023/12/28 13:22:04;;;;;;;1.15;1.10;;;;;;;;;;4988545;28;20092;-82
2023/12/28 13:24:29;;;;;;;0.93;0.85;;;;;;;;;;4988263;28;20042;-82
2023/12/28 13:26:54;;;;;;;1.35;1.10;;;;;;;;;;4987023;28;20038;-81
2023/12/28 13:29:19;;;;;;;3.70;1.00;;;;;;;;;;4991313;28;20042;-84
2023/12/28 13:31:47;;;;;;;4.28;0.90;;;;;;;;;;4987971;28;20039;-82
2023/12/28 13:34:12;;;;;;;1.08;1.02;;;;;;;;;;4966318;28;20042;-84
2023/12/28 13:36:38;;;;;;;2.30;0.85;;;;;;;;;;4986011;28;20598;-84
2023/12/28 13:39:03;;;;;;;1.58;1.05;;;;;;;;;;4984305;28;20045;-82
2023/12/28 13:41:28;;;;;;;0.90;0.90;;;;;;;;;;4994614;28;20054;-83
2023/12/28 13:44:00;;;;;;;1.00;1.00;;;;;;;;;;4988470;28;20503;-81
2023/12/28 13:46:25;;;;;;;0.82;0.80;;;;;;;;;;4990664;28;20034;-82
2023/12/28 13:48:50;;;;;;;0.80;0.80;;;;;;;;;;4986960;28;20507;-84
2023/12/28 13:51:16;;;;;;;0.88;0.88;;;;;;;;;;4972892;28;20076;-83
2023/12/28 13:53:41;;;;;;;0.88;0.88;;;;;;;;;;4976912;28;20039;-83
2023/12/28 13:56:08;;;;;;;0.88;0.88;;;;;;;;;;4962178;28;20053;-83
2023/12/28 13:58:34;;;;;;;0.77;0.77;;;;;;;;;;4980060;28;20104;-83
2023/12/28 14:00:59;;;;;;;0.90;0.90;;;;;;;;;;4988872;28;20035;-84
2023/12/28 14:03:24;;;;;;;0.90;0.90;;;;;;;;;;4982431;28;20063;-84
2023/12/28 14:05:50;;;;;;;0.80;0.80;;;;;;;;;;4984280;28;20085;-83
2023/12/28 14:08:15;;;;;;;1.35;1.00;;;;;;;;;;4961774;28;20034;-85
2023/12/28 14:10:40;;;;;;;1.35;1.05;;;;;;;;;;4987101;28;20026;-81
2023/12/28 14:13:06;;;;;;;0.77;0.77;;;;;;;;;;4993893;28;20502;-82
2023/12/28 14:15:31;;;;;;;1.25;1.10;;;;;;;;;;4980357;28;20030;-82
2023/12/28 14:17:56;;;;;;;1.40;1.20;;;;;;;;;;4985447;28;20027;-82
2023/12/28 14:20:22;;;;;;;0.90;0.90;;;;;;;;;;4965886;28;20116;-82
2023/12/28 14:22:47;;;;;;;1.00;1.00;;;;;;;;;;4974287;28;20038;-83
2023/12/28 14:25:13;;;;;;;0.90;0.90;;;;;;;;;;4980105;28;20038;-81
2023/12/28 14:27:39;;;;;;;1.42;0.90;;;;;;;;;;4978585;28;20060;-84
2023/12/28 14:30:06;;;;;;;1.00;0.90;;;;;;;;;;4997789;28;20045;-84
2023/12/28 14:32:31;;;;;;;1.20;1.10;;;;;;;;;;4998394;28;20486;-84
2023/12/28 14:34:57;;;;;;;0.90;0.90;;;;;;;;;;4990734;28;20037;-83